Time;durP1;ratioP1;P1;durP2;ratioP2;P2;SDS_P1;SDS_P2;PMS_P1;PMS_P2;Temp;Humidity;BMP_temperature;BMP_pressure;BME280_temperature;BME280_humidity;BME280_pressure;Samples;Min_cycle;Max_cycle;Signal;HPM_P1;HPM_P2
2024/01/25 00:01:22;;;;;;;0.63;0.43;;;;;;;12.90;48.33;93195.16;4845556;29;20045;-80
2024/01/25 00:04:29;;;;;;;0.50;0.50;;;;;;;12.92;48.59;93202.75;4850995;29;20068;-80
2024/01/25 00:07:14;;;;;;;0.52;0.52;;;;;;;12.97;47.97;93200.06;4851281;29;20048;-81
2024/01/25 00:09:50;;;;;;;0.45;0.45;;;;;;;12.95;47.78;93194.31;4850397;29;20322;-81
2024/01/25 00:12:16;;;;;;;0.45;0.45;;;;;;;12.91;47.05;93190.69;4850821;29;20487;-80
2024/01/25 00:18:36;;;;;;;0.60;0.60;;;;;;;12.78;48.12;93189.53;4851450;29;20045;-80
2024/01/25 00:21:57;;;;;;;0.50;0.50;;;;;;;12.81;47.39;93185.56;4850524;29;20092;-80
2024/01/25 00:24:28;;;;;;;0.47;0.47;;;;;;;12.80;47.26;93179.53;4776200;30;20043;-81
2024/01/25 00:27:17;;;;;;;0.50;0.50;;;;;;;12.84;47.67;93180.53;4824963;29;20072;-81
2024/01/25 00:29:44;;;;;;;0.47;0.47;;;;;;;12.73;47.79;93180.94;4834626;29;20073;-80
2024/01/25 00:32:12;;;;;;;0.50;0.50;;;;;;;12.62;48.25;93178.44;4850809;29;20034;-81
2024/01/25 00:34:40;;;;;;;0.50;0.50;;;;;;;12.55;48.32;93179.84;4833963;29;20459;-80
2024/01/25 00:37:21;;;;;;;0.60;0.60;;;;;;;12.45;48.13;93185.97;4850455;29;20034;-80
2024/01/25 00:39:48;;;;;;;0.50;0.50;;;;;;;12.41;48.25;93182.38;4850570;29;20056;-81
2024/01/25 00:42:42;;;;;;;0.40;0.40;;;;;;;12.55;47.00;93170.13;4854558;29;20037;-80
2024/01/25 00:45:09;;;;;;;0.40;0.40;;;;;;;12.59;46.82;93165.88;4854200;29;20038;-80
2024/01/25 00:48:07;;;;;;;0.40;0.40;;;;;;;12.69;46.59;93178.09;4854390;29;20087;-80
2024/01/25 00:51:06;;;;;;;0.50;0.50;;;;;;;12.78;46.30;93176.41;4854068;29;20036;-80
2024/01/25 00:53:44;;;;;;;0.50;0.50;;;;;;;12.73;46.25;93180.94;4855173;29;20037;-79
2024/01/25 00:56:35;;;;;;;0.50;0.50;;;;;;;12.70;46.57;93174.41;4854130;29;20399;-81
2024/01/25 00:59:05;;;;;;;0.75;0.50;;;;;;;12.95;44.75;93183.81;4838004;29;20537;-80
2024/01/25 01:01:33;;;;;;;0.50;0.50;;;;;;;12.95;44.56;93175.94;4854741;29;20045;-81
2024/01/25 01:04:13;;;;;;;0.43;0.43;;;;;;;13.24;44.47;93174.97;4853803;29;20038;-81
2024/01/25 01:14:48;;;;;;;0.50;0.50;;;;;;;13.19;43.70;93177.69;4853255;29;20098;-80
2024/01/25 01:17:24;;;;;;;0.40;0.40;;;;;;;13.19;42.31;93173.22;4837670;29;20082;-80
2024/01/25 01:19:53;;;;;;;0.40;0.40;;;;;;;13.24;42.23;93174.97;4853113;29;20049;-80
2024/01/25 01:26:12;;;;;;;0.40;0.40;;;;;;;13.28;42.04;93173.38;4853033;29;20129;-80
2024/01/25 01:28:38;;;;;;;0.32;0.32;;;;;;;13.45;41.81;93178.13;4853670;29;20067;-80
2024/01/25 01:31:48;;;;;;;0.43;0.43;;;;;;;13.62;41.32;93177.59;4836775;29;20041;-80
2024/01/25 01:34:43;;;;;;;0.50;0.50;;;;;;;13.58;40.85;93174.78;4853475;29;20113;-79
2024/01/25 01:37:17;;;;;;;0.40;0.40;;;;;;;13.64;41.02;93186.75;4852766;29;20038;-80
2024/01/25 01:39:58;;;;;;;0.52;0.52;;;;;;;13.64;40.73;93172.84;4853328;29;20042;-81
2024/01/25 01:42:44;;;;;;;0.50;0.50;;;;;;;13.57;40.78;93180.31;4853992;29;20460;-79
2024/01/25 01:45:12;;;;;;;0.47;0.47;;;;;;;13.69;40.18;93185.91;4850800;29;20530;-80
2024/01/25 01:47:39;;;;;;;0.40;0.40;;;;;;;13.70;39.91;93183.00;4852676;29;20036;-80
2024/01/25 01:50:06;;;;;;;0.50;0.50;;;;;;;13.73;39.45;93189.53;4852382;29;20038;-80
2024/01/25 01:52:58;;;;;;;0.50;0.50;;;;;;;13.68;39.86;93184.34;4851627;29;20136;-79
2024/01/25 01:55:58;;;;;;;0.40;0.40;;;;;;;13.66;39.55;93186.50;4853906;29;20046;-81
2024/01/25 01:58:25;;;;;;;0.50;0.50;;;;;;;13.68;39.28;93176.47;4852059;29;20037;-80
2024/01/25 02:01:36;;;;;;;0.40;0.40;;;;;;;13.58;39.61;93181.88;4852040;29;20038;-80
2024/01/25 02:04:40;;;;;;;0.32;0.32;;;;;;;13.50;39.78;93183.31;4836625;29;20037;-80
2024/01/25 02:07:37;;;;;;;0.40;0.40;;;;;;;13.33;40.48;93181.22;4852909;29;20042;-80
2024/01/25 02:11:25;;;;;;;0.40;0.40;;;;;;;13.22;40.64;93177.13;4853250;29;20058;-80
2024/01/25 02:18:12;;;;;;;0.52;0.52;;;;;;;12.99;41.17;93182.19;4854121;29;20048;-80
2024/01/25 02:21:31;;;;;;;0.40;0.40;;;;;;;12.95;41.22;93185.63;4853219;29;20071;-80
2024/01/25 02:24:28;;;;;;;0.47;0.47;;;;;;;12.89;41.94;93177.06;4852983;29;20038;-80
2024/01/25 02:30:56;;;;;;;0.43;0.43;;;;;;;12.82;41.41;93181.88;4835061;29;20073;-81
2024/01/25 02:33:37;;;;;;;0.50;0.50;;;;;;;12.92;40.48;93186.97;4853223;29;20084;-81
2024/01/25 02:36:16;;;;;;;0.50;0.50;;;;;;;12.87;40.83;93184.44;4853408;29;20038;-81
2024/01/25 02:38:42;;;;;;;0.85;0.40;;;;;;;12.83;41.07;93178.94;4836938;29;20042;-81
2024/01/25 02:41:13;;;;;;;0.40;0.40;;;;;;;12.84;40.98;93175.28;4853540;29;20034;-81
2024/01/25 02:47:58;;;;;;;0.47;0.47;;;;;;;12.70;41.27;93167.31;4853579;29;20046;-80
2024/01/25 02:50:35;;;;;;;0.40;0.40;;;;;;;12.81;40.30;93175.03;4852099;29;20038;-80
2024/01/25 02:53:05;;;;;;;0.40;0.40;;;;;;;12.99;38.50;93165.59;4835901;29;20110;-80
2024/01/25 02:55:31;;;;;;;0.30;0.30;;;;;;;12.96;39.33;93169.59;4834468;29;20034;-81
2024/01/25 02:58:49;;;;;;;0.32;0.32;;;;;;;12.94;39.73;93169.09;4834800;29;20048;-81
2024/01/25 03:01:17;;;;;;;0.45;0.45;;;;;;;12.90;39.57;93162.84;4850812;29;20037;-81
2024/01/25 03:03:45;;;;;;;0.50;0.50;;;;;;;13.16;37.86;93170.38;4850740;29;20092;-80
2024/01/25 03:07:00;;;;;;;0.30;0.30;;;;;;;13.16;38.37;93171.16;4851544;29;20489;-80
2024/01/25 03:09:27;;;;;;;0.35;0.35;;;;;;;13.17;38.19;93161.41;4834812;29;20054;-81
2024/01/25 03:12:19;;;;;;;0.30;0.30;;;;;;;13.18;38.10;93165.63;4851508;29;20041;-80
2024/01/25 03:14:45;;;;;;;0.30;0.30;;;;;;;13.23;38.39;93170.81;4850709;29;20029;-80
2024/01/25 03:17:30;;;;;;;0.40;0.40;;;;;;;13.19;38.34;93154.03;4776492;30;20055;-81
2024/01/25 03:20:14;;;;;;;0.40;0.40;;;;;;;13.28;37.81;93153.16;4777342;30;20066;-79
2024/01/25 03:26:38;;;;;;;0.40;0.40;;;;;;;13.39;37.54;93153.75;4850593;29;20170;-79
2024/01/25 03:29:46;;;;;;;0.30;0.30;;;;;;;13.32;37.78;93155.97;4850696;29;20506;-79
2024/01/25 03:32:56;;;;;;;0.50;0.50;;;;;;;13.27;37.86;93161.28;4852308;29;20698;-80
2024/01/25 03:35:53;;;;;;;0.40;0.40;;;;;;;13.24;38.23;93164.47;4851504;29;20396;-81
2024/01/25 03:39:09;;;;;;;0.28;0.28;;;;;;;13.25;38.35;93163.41;4851842;29;20035;-81
2024/01/25 03:41:36;;;;;;;0.35;0.35;;;;;;;13.11;38.72;93163.34;4851184;29;20132;-80
2024/01/25 03:44:12;;;;;;;0.40;0.40;;;;;;;13.07;38.69;93157.88;4851653;29;20062;-80
2024/01/25 03:47:05;;;;;;;0.35;0.35;;;;;;;12.95;39.27;93160.16;4851681;29;20044;-79
2024/01/25 03:49:42;;;;;;;0.30;0.30;;;;;;;12.84;39.41;93164.75;4852163;29;20053;-80
2024/01/25 03:52:29;;;;;;;0.40;0.40;;;;;;;12.73;39.93;93159.94;4851146;29;20087;-80
2024/01/25 03:55:17;;;;;;;0.40;0.40;;;;;;;12.62;40.10;93160.03;4852418;29;20042;-80
2024/01/25 03:57:52;;;;;;;0.40;0.40;;;;;;;12.56;40.33;93163.78;4850593;29;20038;-79
2024/01/25 04:00:55;;;;;;;0.47;0.47;;;;;;;12.47;40.49;93158.41;4835611;29;20038;-80
2024/01/25 04:03:23;;;;;;;;;;;;;;;12.41;40.84;93158.75;4851833;29;20038;-80
2024/01/25 04:05:50;;;;;;;0.38;0.38;;;;;;;12.34;40.99;93158.28;4834907;29;19931;-78
2024/01/25 04:08:20;;;;;;;0.30;0.30;;;;;;;12.23;41.50;93155.78;4834924;29;20486;-79
2024/01/25 04:12:08;;;;;;;0.30;0.30;;;;;;;12.12;41.92;93156.94;4837074;29;20042;-79
2024/01/25 04:14:39;;;;;;;0.40;0.40;;;;;;;12.01;42.28;93158.13;4835934;29;20049;-80
2024/01/25 04:17:12;;;;;;;0.52;0.52;;;;;;;11.86;43.35;93151.91;4852890;29;20046;-80
2024/01/25 04:19:43;;;;;;;2.78;0.50;;;;;;;11.75;43.55;93147.81;4852526;29;20073;-81
2024/01/25 04:22:27;;;;;;;0.50;0.50;;;;;;;11.64;43.82;93149.78;4851654;29;20038;-80
2024/01/25 04:24:53;;;;;;;1.70;0.50;;;;;;;11.52;44.87;93162.44;4851611;29;20042;-80
2024/01/25 04:27:54;;;;;;;0.30;0.30;;;;;;;11.39;44.93;93157.84;4851382;29;20072;-80
2024/01/25 04:30:25;;;;;;;0.40;0.40;;;;;;;11.26;45.22;93161.88;4851649;29;20053;-80
2024/01/25 04:32:57;;;;;;;0.40;0.40;;;;;;;11.11;45.97;93161.97;4851782;29;20042;-80
2024/01/25 04:35:36;;;;;;;0.40;0.40;;;;;;;11.00;46.34;93158.63;4852223;29;20038;-80
2024/01/25 04:38:19;;;;;;;0.30;0.30;;;;;;;10.90;47.27;93163.91;4850749;29;20124;-80
2024/01/25 04:40:51;;;;;;;0.40;0.40;;;;;;;10.89;47.39;93154.50;4851141;29;20045;-79
2024/01/25 04:43:38;;;;;;;1.35;0.90;;;;;;;10.88;47.60;93161.59;4851712;29;20514;-80
2024/01/25 04:46:11;;;;;;;0.50;0.50;;;;;;;10.94;47.87;93163.13;4851088;29;20042;-79
2024/01/25 04:48:39;;;;;;;;;;;;;;;10.98;48.61;93168.59;4851745;29;20065;-80
2024/01/25 04:51:16;;;;;;;0.40;0.40;;;;;;;11.11;49.22;93167.22;4834229;29;19912;-80
2024/01/25 04:57:32;;;;;;;0.50;0.50;;;;;;;11.11;50.22;93164.59;4850892;29;20080;-79
2024/01/25 05:00:08;;;;;;;;;;;;;;;11.06;51.08;93168.03;4852673;29;20050;-80
2024/01/25 05:02:49;;;;;;;0.40;0.40;;;;;;;11.06;51.85;93159.41;4851913;29;19983;-80
2024/01/25 05:05:22;;;;;;;0.60;0.60;;;;;;;11.06;51.75;93159.41;4851931;29;20050;-80
2024/01/25 05:08:26;;;;;;;0.40;0.40;;;;;;;11.11;51.82;93164.59;4851980;29;20042;-80
2024/01/25 05:11:34;;;;;;;2.13;0.63;;;;;;;11.21;51.50;93161.91;4833309;29;20038;-79
2024/01/25 05:14:08;;;;;;;0.45;0.45;;;;;;;11.25;51.20;93152.44;4832409;29;20039;-80
2024/01/25 05:17:23;;;;;;;0.47;0.47;;;;;;;11.35;51.71;93162.06;4832789;29;20507;-80
2024/01/25 05:20:09;;;;;;;0.45;0.45;;;;;;;11.21;52.05;93167.13;4833100;29;20046;-80
2024/01/25 05:22:40;;;;;;;0.50;0.50;;;;;;;11.10;52.37;93161.19;4831253;29;20043;-79
2024/01/25 05:29:12;;;;;;;0.50;0.50;;;;;;;10.96;52.68;93166.25;4836086;29;20495;-80
2024/01/25 05:31:53;;;;;;;0.40;0.40;;;;;;;10.95;52.72;93158.66;4836174;29;20041;-79
2024/01/25 05:34:20;;;;;;;0.40;0.40;;;;;;;10.92;53.16;93157.38;4836392;29;20054;-80
2024/01/25 05:36:52;;;;;;;0.52;0.52;;;;;;;10.95;53.06;93167.31;4835577;29;20031;-79
2024/01/25 05:39:18;;;;;;;;;;;;;;;11.00;53.16;93153.41;4837771;29;20058;-79
2024/01/25 05:41:46;;;;;;;0.50;0.50;;;;;;;10.93;53.74;93161.56;4822600;29;19920;-80
2024/01/25 05:44:12;;;;;;;0.40;0.40;;;;;;;10.90;53.25;93158.69;4816778;29;20544;-81
2024/01/25 05:46:44;;;;;;;0.50;0.50;;;;;;;10.95;52.24;93154.22;4818054;29;20077;-81
2024/01/25 05:49:13;;;;;;;0.40;0.40;;;;;;;11.06;51.84;93164.63;4830323;29;20055;-80
2024/01/25 05:51:48;;;;;;;0.70;0.60;;;;;;;11.09;52.05;93170.09;4837035;29;20039;-80
2024/01/25 05:54:19;;;;;;;0.47;0.47;;;;;;;11.06;52.42;93167.25;4837370;29;20042;-80
2024/01/25 05:56:49;;;;;;;0.50;0.50;;;;;;;11.12;51.84;93174.00;4821802;29;20066;-81
2024/01/25 05:59:15;;;;;;;0.38;0.38;;;;;;;11.11;51.97;93182.94;4836031;29;20046;-80
2024/01/25 06:01:46;;;;;;;0.50;0.50;;;;;;;11.09;52.02;93171.94;4830062;29;20049;-81
2024/01/25 06:04:11;;;;;;;0.30;0.30;;;;;;;11.06;52.21;93175.13;4826635;29;20404;-81
2024/01/25 06:06:37;;;;;;;0.40;0.40;;;;;;;11.02;52.09;93175.63;4838635;29;20746;-80
2024/01/25 06:09:03;;;;;;;0.47;0.47;;;;;;;10.95;52.58;93184.88;4838767;29;20077;-81
2024/01/25 06:11:43;;;;;;;0.40;0.40;;;;;;;10.79;53.25;93164.00;4837044;29;20046;-81
2024/01/25 06:14:13;;;;;;;0.40;0.40;;;;;;;10.72;53.75;93181.06;4854486;29;20041;-82
2024/01/25 06:16:41;;;;;;;0.40;0.40;;;;;;;10.60;53.66;93173.50;4852844;29;20049;-80
2024/01/25 06:19:10;;;;;;;0.40;0.40;;;;;;;10.66;53.14;93174.28;4838753;29;20056;-80
2024/01/25 06:21:37;;;;;;;0.60;0.60;;;;;;;10.75;53.16;93180.50;4854012;29;20050;-79
2024/01/25 06:24:04;;;;;;;2.33;0.60;;;;;;;10.78;53.00;93190.44;4853341;29;20123;-78
2024/01/25 06:26:30;;;;;;;0.50;0.50;;;;;;;10.74;52.95;93190.22;4852762;29;20045;-78
2024/01/25 06:28:59;;;;;;;0.40;0.40;;;;;;;10.74;53.83;93194.66;4853500;29;20042;-78
2024/01/25 06:31:26;;;;;;;0.40;0.40;;;;;;;10.70;53.69;93193.66;4835760;29;20519;-79
2024/01/25 06:33:52;;;;;;;0.40;0.40;;;;;;;10.69;53.63;93195.44;4853338;29;20034;-79
2024/01/25 06:36:19;;;;;;;0.40;0.40;;;;;;;10.60;54.37;93190.03;4852230;29;20125;-81
2024/01/25 06:38:45;;;;;;;0.43;0.40;;;;;;;10.55;55.12;93203.09;4850698;29;20378;-78
2024/01/25 06:41:10;;;;;;;0.50;0.50;;;;;;;10.40;55.34;93188.25;4848843;29;20314;-79
2024/01/25 06:43:40;;;;;;;0.40;0.40;;;;;;;10.30;55.75;93203.22;4848735;29;20049;-82
2024/01/25 06:46:08;;;;;;;0.90;0.60;;;;;;;10.31;55.07;93202.13;4832387;29;20438;-80
2024/01/25 06:48:34;;;;;;;0.50;0.50;;;;;;;10.21;55.74;93206.31;4847059;29;20022;-81
2024/01/25 06:51:00;;;;;;;0.60;0.60;;;;;;;10.14;55.75;93202.44;4847669;29;20379;-81
2024/01/25 06:53:39;;;;;;;0.50;0.50;;;;;;;10.18;55.09;93203.47;4848710;29;20490;-81
2024/01/25 06:56:05;;;;;;;0.60;0.60;;;;;;;10.17;55.44;93213.13;4853647;29;20034;-81
2024/01/25 06:58:33;;;;;;;0.50;0.50;;;;;;;10.30;52.85;93208.44;4852646;29;20075;-83
2024/01/25 07:00:59;;;;;;;0.68;0.30;;;;;;;10.57;50.80;93216.72;4853276;29;20053;-83
2024/01/25 07:03:26;;;;;;;0.40;0.40;;;;;;;10.89;49.76;93212.13;4839820;29;20042;-83
2024/01/25 07:05:56;;;;;;;0.40;0.40;;;;;;;11.02;49.70;93211.53;4855505;29;20042;-82
2024/01/25 07:08:24;;;;;;;0.40;0.40;;;;;;;11.18;49.66;93220.09;4846522;29;20050;-82
2024/01/25 07:10:49;;;;;;;0.45;0.45;;;;;;;11.36;49.65;93205.56;4843995;29;20081;-83
2024/01/25 07:13:22;;;;;;;0.47;0.47;;;;;;;11.48;46.43;93210.47;4855810;29;20038;-81
2024/01/25 07:15:48;;;;;;;0.50;0.50;;;;;;;11.76;44.11;93209.72;4849100;29;20062;-82
2024/01/25 07:18:14;;;;;;;0.57;0.57;;;;;;;12.06;43.90;93205.28;4838990;29;20038;-83
2024/01/25 07:20:40;;;;;;;0.60;0.57;;;;;;;12.53;41.94;93203.75;4854163;29;20375;-84
2024/01/25 07:23:08;;;;;;;0.50;0.50;;;;;;;12.84;41.21;93212.06;4854624;29;20122;-82
2024/01/25 07:25:34;;;;;;;0.50;0.50;;;;;;;13.36;40.51;93206.94;4852430;29;20104;-83
2024/01/25 07:28:08;;;;;;;0.57;0.50;;;;;;;14.21;38.70;93204.25;4853559;29;20042;-83
2024/01/25 07:30:40;;;;;;;1.00;0.52;;;;;;;15.12;35.97;93195.66;4838082;29;20073;-82
2024/01/25 07:33:20;;;;;;;2.13;0.52;;;;;;;15.78;35.32;93207.41;4836142;29;20128;-82
2024/01/25 07:35:45;;;;;;;0.35;0.35;;;;;;;16.50;33.95;93200.31;4849145;29;20038;-79
2024/01/25 07:38:14;;;;;;;0.47;0.47;;;;;;;17.24;32.18;93202.25;4850431;29;20092;-80
2024/01/25 07:40:40;;;;;;;0.40;0.40;;;;;;;18.26;30.93;93197.53;4850914;29;20079;-79
2024/01/25 07:43:06;;;;;;;0.22;0.22;;;;;;;19.11;29.06;93200.13;4851968;29;20038;-80
2024/01/25 07:45:32;;;;;;;0.45;0.40;;;;;;;19.72;29.36;93199.75;4851777;29;20085;-80
2024/01/25 07:47:57;;;;;;;0.40;0.40;;;;;;;20.41;27.21;93194.09;4833395;29;20088;-78
2024/01/25 07:50:23;;;;;;;0.30;0.30;;;;;;;20.98;25.61;93194.06;4849230;29;20054;-78
2024/01/25 07:52:49;;;;;;;0.40;0.40;;;;;;;21.20;25.70;93184.81;4854110;29;20395;-78
2024/01/25 07:55:16;;;;;;;0.30;0.30;;;;;;;21.16;25.47;93199.13;4853250;29;20036;-78
2024/01/25 07:57:41;;;;;;;0.40;0.40;;;;;;;20.84;27.54;93204.25;4852660;29;20048;-78
2024/01/25 08:00:08;;;;;;;0.55;0.55;;;;;;;21.15;27.44;93200.25;4850172;29;20034;-78
2024/01/25 08:02:35;;;;;;;0.30;0.30;;;;;;;21.56;26.87;93198.41;4850038;29;20663;-78
2024/01/25 08:05:01;;;;;;;0.63;0.50;;;;;;;20.95;28.03;93207.25;4832889;29;20030;-78
2024/01/25 08:07:27;;;;;;;0.60;0.60;;;;;;;20.66;26.71;93194.91;4851224;29;20040;-79
2024/01/25 08:09:53;;;;;;;0.82;0.40;;;;;;;20.54;27.55;93193.78;4835138;29;20062;-78
2024/01/25 08:12:18;;;;;;;0.80;0.43;;;;;;;20.40;27.71;93203.97;4851699;29;20046;-78
2024/01/25 08:14:44;;;;;;;0.30;0.30;;;;;;;20.07;28.23;93202.09;4834724;29;20529;-78
2024/01/25 08:17:10;;;;;;;0.30;0.30;;;;;;;19.83;29.50;93202.00;4819966;29;20050;-77
2024/01/25 08:19:35;;;;;;;0.40;0.40;;;;;;;20.17;29.75;93206.22;4852092;29;20030;-78
2024/01/25 08:22:01;;;;;;;0.73;0.60;;;;;;;20.81;28.94;93201.47;4834796;29;20042;-79
2024/01/25 08:24:27;;;;;;;0.52;0.40;;;;;;;21.82;28.32;93201.44;4835190;29;20072;-78
2024/01/25 08:26:53;;;;;;;0.95;0.60;;;;;;;22.26;27.15;93207.94;4835967;29;20064;-79
2024/01/25 08:29:18;;;;;;;0.73;0.60;;;;;;;22.73;26.45;93210.66;4835469;29;20030;-78
2024/01/25 08:31:44;;;;;;;0.50;0.50;;;;;;;23.28;25.74;93200.91;4835892;29;20048;-78
2024/01/25 08:34:10;;;;;;;0.32;0.32;;;;;;;22.86;24.95;93208.69;4834852;29;20061;-79
2024/01/25 08:36:35;;;;;;;0.98;0.57;;;;;;;24.18;25.13;93204.63;4850756;29;20022;-79
2024/01/25 08:39:01;;;;;;;0.70;0.65;;;;;;;24.70;23.67;93211.31;4850361;29;20426;-79
2024/01/25 08:41:27;;;;;;;0.80;0.73;;;;;;;24.01;23.67;93205.84;4833026;29;20109;-78
2024/01/25 08:43:53;;;;;;;0.70;0.70;;;;;;;24.25;23.76;93200.22;4849832;29;20126;-78
2024/01/25 08:46:18;;;;;;;1.65;0.95;;;;;;;25.13;23.85;93209.34;4833040;29;20042;-78
2024/01/25 08:48:44;;;;;;;2.40;1.40;;;;;;;25.99;21.93;93201.72;4818253;29;20034;-79
2024/01/25 08:51:10;;;;;;;3.63;1.80;;;;;;;26.16;23.13;93206.50;4803238;29;20074;-79
2024/01/25 08:53:36;;;;;;;1.10;0.90;;;;;;;26.15;22.42;93211.09;4833635;29;20506;-79
2024/01/25 08:56:01;;;;;;;0.80;0.80;;;;;;;27.34;21.31;93220.28;4833722;29;20041;-79
2024/01/25 08:58:27;;;;;;;2.53;1.58;;;;;;;28.33;20.10;93215.78;4833180;29;20072;-79
2024/01/25 09:00:55;;;;;;;1.08;0.77;;;;;;;27.36;20.50;93213.38;4850229;29;20044;-78
2024/01/25 09:03:22;;;;;;;0.50;0.50;;;;;;;26.75;21.54;93204.84;4853940;29;20464;-78
2024/01/25 09:05:50;;;;;;;0.40;0.40;;;;;;;26.17;22.30;93197.31;4853168;29;20034;-78
2024/01/25 09:08:16;;;;;;;1.00;0.50;;;;;;;25.31;22.09;93207.72;4853340;29;20026;-78
2024/01/25 09:10:42;;;;;;;0.50;0.50;;;;;;;23.58;24.25;93218.34;4836309;29;20110;-79
2024/01/25 09:13:08;;;;;;;0.80;0.50;;;;;;;22.50;24.88;93209.72;4852646;29;20088;-78
2024/01/25 09:15:34;;;;;;;0.43;0.43;;;;;;;22.63;25.66;93217.28;4820233;29;20041;-79
2024/01/25 09:17:59;;;;;;;0.38;0.38;;;;;;;22.57;25.90;93202.66;4852648;29;20101;-79
2024/01/25 09:20:25;;;;;;;0.30;0.30;;;;;;;22.31;26.66;93210.38;4852572;29;20050;-77
2024/01/25 09:22:53;;;;;;;0.30;0.30;;;;;;;22.66;26.10;93207.81;4852918;29;20415;-79
2024/01/25 09:25:19;;;;;;;1.75;0.50;;;;;;;22.45;26.76;93222.19;4851967;29;20025;-79
2024/01/25 09:27:46;;;;;;;0.38;0.38;;;;;;;22.28;26.88;93219.06;4852871;29;20532;-78
2024/01/25 09:30:12;;;;;;;0.40;0.40;;;;;;;22.16;25.99;93212.63;4852381;29;20434;-77
2024/01/25 09:32:37;;;;;;;0.20;0.20;;;;;;;21.62;27.14;93216.50;4835832;29;20026;-78
2024/01/25 09:35:03;;;;;;;1.00;0.30;;;;;;;21.53;27.20;93218.50;4852482;29;20109;-77
2024/01/25 09:37:29;;;;;;;0.30;0.30;;;;;;;21.73;28.10;93222.13;4852744;29;20042;-77
2024/01/25 09:39:54;;;;;;;0.30;0.30;;;;;;;21.14;26.80;93223.44;4836141;29;20033;-78
2024/01/25 09:42:20;;;;;;;0.25;0.25;;;;;;;20.38;28.26;93235.41;4848205;29;20114;-77
2024/01/25 09:44:46;;;;;;;0.30;0.30;;;;;;;20.84;28.22;93243.38;4847909;29;20092;-78
2024/01/25 09:47:12;;;;;;;0.30;0.30;;;;;;;20.77;28.71;93243.94;4851444;29;20050;-77
2024/01/25 09:49:38;;;;;;;0.20;0.20;;;;;;;21.15;27.52;93242.84;4835352;29;20089;-80
2024/01/25 09:52:04;;;;;;;0.47;0.47;;;;;;;21.33;27.74;93243.38;4820360;29;20077;-79
2024/01/25 09:54:35;;;;;;;0.43;0.30;;;;;;;20.82;28.89;93256.22;4851749;29;20042;-80
2024/01/25 09:57:06;;;;;;;0.30;0.30;;;;;;;20.44;28.25;93255.34;4851576;29;20045;-79
2024/01/25 09:59:32;;;;;;;0.40;0.40;;;;;;;20.57;28.30;93248.97;4852091;29;20034;-79
2024/01/25 10:02:01;;;;;;;0.30;0.30;;;;;;;21.59;27.75;93257.13;4852420;29;20387;-79
2024/01/25 10:04:26;;;;;;;0.30;0.30;;;;;;;21.44;27.71;93260.47;4853274;29;20042;-79
2024/01/25 10:06:57;;;;;;;0.20;0.20;;;;;;;22.18;27.53;93257.63;4836389;29;20490;-79
2024/01/25 10:09:23;;;;;;;0.30;0.30;;;;;;;22.50;25.61;93265.72;4852281;29;20145;-80
2024/01/25 10:11:49;;;;;;;0.30;0.30;;;;;;;22.07;26.85;93262.66;4852047;29;20094;-79
2024/01/25 10:14:14;;;;;;;0.32;0.32;;;;;;;21.38;27.45;93257.22;4834330;29;20042;-79
2024/01/25 10:16:40;;;;;;;0.30;0.30;;;;;;;21.98;26.64;93256.69;4834664;29;20679;-79
2024/01/25 10:19:08;;;;;;;0.40;0.40;;;;;;;22.48;24.49;93255.41;4820203;29;20585;-78
2024/01/25 10:21:35;;;;;;;0.65;0.30;;;;;;;22.65;26.43;93259.63;4846407;29;20087;-76
2024/01/25 10:24:02;;;;;;;0.20;0.20;;;;;;;22.79;25.68;93264.56;4846594;29;20407;-78
2024/01/25 10:26:31;;;;;;;0.30;0.30;;;;;;;22.69;25.06;93262.41;4849596;29;20057;-79
2024/01/25 10:28:57;;;;;;;0.20;0.20;;;;;;;21.66;26.65;93243.25;4832947;29;20056;-79
2024/01/25 10:31:25;;;;;;;0.45;0.40;;;;;;;22.07;27.17;93257.34;4818108;29;20038;-79
2024/01/25 10:33:53;;;;;;;0.30;0.30;;;;;;;22.12;25.07;93253.66;4849561;29;20053;-79
2024/01/25 10:36:21;;;;;;;0.35;0.35;;;;;;;21.78;26.28;93253.09;4847816;29;20034;-79
2024/01/25 10:38:48;;;;;;;0.63;0.35;;;;;;;21.89;25.81;93245.41;4830057;29;20033;-79
2024/01/25 10:41:17;;;;;;;0.60;0.45;;;;;;;21.94;25.00;93245.94;4844346;29;20050;-80
2024/01/25 10:43:43;;;;;;;0.40;0.40;;;;;;;20.95;27.65;93255.91;4845136;29;20030;-80
2024/01/25 10:46:10;;;;;;;0.85;0.38;;;;;;;20.84;27.99;93254.78;4844225;29;20029;-78
2024/01/25 10:48:37;;;;;;;0.50;0.40;;;;;;;21.17;27.28;93253.94;4842676;29;20490;-79
2024/01/25 10:51:04;;;;;;;0.40;0.30;;;;;;;21.10;28.14;93245.72;4845754;29;20034;-79
2024/01/25 10:53:47;;;;;;;0.40;0.40;;;;;;;21.02;28.81;93244.72;4832724;29;20503;-79
2024/01/25 10:56:13;;;;;;;0.68;0.68;;;;;;;21.74;27.95;93231.66;4849385;29;20046;-79
2024/01/25 10:58:41;;;;;;;0.47;0.45;;;;;;;22.43;25.78;93234.31;4833516;29;20045;-79
2024/01/25 11:01:35;;;;;;;0.40;0.40;;;;;;;22.93;25.80;93243.56;4849409;29;20095;-79
2024/01/25 11:04:00;;;;;;;3.25;0.47;;;;;;;22.50;25.92;93245.16;4831208;29;20041;-80
2024/01/25 11:06:27;;;;;;;4.55;0.57;;;;;;;22.13;26.60;93229.28;4849669;29;20038;-80
2024/01/25 11:09:05;;;;;;;0.40;0.40;;;;;;;22.24;26.81;93230.38;4847482;29;20306;-79
2024/01/25 11:11:31;;;;;;;0.20;0.20;;;;;;;22.30;25.96;93238.16;4847023;29;20042;-79
2024/01/25 11:13:58;;;;;;;0.20;0.20;;;;;;;22.35;24.65;93225.34;4828483;29;20140;-79
2024/01/25 11:16:35;;;;;;;0.20;0.20;;;;;;;22.48;24.23;93230.63;4830872;29;20549;-78
2024/01/25 11:19:06;;;;;;;0.28;0.28;;;;;;;22.82;24.19;93239.84;4827279;29;20135;-79
2024/01/25 11:21:41;;;;;;;0.55;0.50;;;;;;;22.99;24.85;93233.38;4843436;29;20476;-82
2024/01/25 11:24:21;;;;;;;0.40;0.40;;;;;;;22.44;25.97;93233.19;4848761;29;20041;-80
2024/01/25 11:26:47;;;;;;;0.30;0.30;;;;;;;22.69;25.44;93230.38;4849532;29;20038;-80
2024/01/25 11:29:22;;;;;;;0.52;0.40;;;;;;;21.98;27.11;93219.38;4849242;29;20048;-80
2024/01/25 11:31:52;;;;;;;0.73;0.43;;;;;;;22.23;25.66;93226.19;4850156;29;20042;-82
2024/01/25 11:34:21;;;;;;;0.30;0.30;;;;;;;22.53;26.62;93217.03;4833015;29;20391;-82
2024/01/25 11:36:47;;;;;;;0.30;0.30;;;;;;;22.33;25.96;93230.22;4832443;29;20414;-81
2024/01/25 11:39:16;;;;;;;0.75;0.60;;;;;;;21.75;26.78;93227.91;4848810;29;20046;-82
2024/01/25 11:41:45;;;;;;;0.43;0.43;;;;;;;21.23;27.27;93223.28;4844937;29;20041;-81
2024/01/25 11:44:13;;;;;;;0.38;0.38;;;;;;;21.28;28.12;93225.75;4852090;29;20038;-81
2024/01/25 11:46:39;;;;;;;0.30;0.30;;;;;;;21.56;26.45;93225.06;4842360;29;20045;-80
2024/01/25 11:49:07;;;;;;;0.40;0.40;;;;;;;20.91;27.34;93217.75;4841526;29;20046;-79
2024/01/25 11:51:32;;;;;;;1.05;0.40;;;;;;;21.21;27.69;93220.22;4826126;29;20038;-78
2024/01/25 11:53:58;;;;;;;0.40;0.40;;;;;;;21.49;27.26;93220.28;4833823;29;20087;-81
2024/01/25 11:56:31;;;;;;;0.50;0.50;;;;;;;21.96;26.72;93211.72;4858178;29;20317;-81
2024/01/25 11:59:02;;;;;;;0.30;0.30;;;;;;;21.71;25.91;93205.72;4869783;29;20044;-82
2024/01/25 12:01:30;;;;;;;0.40;0.40;;;;;;;21.22;26.53;93213.75;4864169;29;20137;-80
2024/01/25 12:04:25;;;;;;;0.40;0.40;;;;;;;21.22;27.78;93208.44;4850302;29;20061;-82
2024/01/25 12:06:50;;;;;;;0.30;0.30;;;;;;;21.86;26.03;93208.75;4847821;29;20502;-80
2024/01/25 12:09:16;;;;;;;0.30;0.30;;;;;;;22.13;25.92;93202.63;4847985;29;20062;-81
2024/01/25 12:11:42;;;;;;;0.52;0.52;;;;;;;21.89;25.94;93198.19;4832529;29;20049;-80
2024/01/25 12:14:10;;;;;;;0.30;0.30;;;;;;;22.45;26.32;93206.19;4832334;29;20046;-82
2024/01/25 12:16:35;;;;;;;0.30;0.30;;;;;;;22.43;24.69;93192.41;4850013;29;20049;-80
2024/01/25 12:19:01;;;;;;;0.40;0.40;;;;;;;22.49;25.62;93195.56;4850825;29;20038;-80
2024/01/25 12:21:45;;;;;;;0.38;0.38;;;;;;;22.99;25.66;93196.81;4833969;29;20052;-80
2024/01/25 12:24:15;;;;;;;0.47;0.47;;;;;;;23.28;24.85;93197.44;4835088;29;20070;-80
2024/01/25 12:27:03;;;;;;;0.40;0.40;;;;;;;23.52;24.55;93201.00;4850612;29;20038;-80
2024/01/25 12:29:36;;;;;;;0.40;0.40;;;;;;;23.80;24.18;93190.16;4850744;29;20170;-80
2024/01/25 12:32:02;;;;;;;0.30;0.30;;;;;;;23.97;23.84;93188.97;4851809;29;20046;-80
2024/01/25 12:34:28;;;;;;;0.30;0.30;;;;;;;24.06;23.01;93192.19;4849663;29;20411;-80
2024/01/25 12:36:54;;;;;;;0.40;0.40;;;;;;;24.24;23.51;93177.25;4834221;29;20056;-80
2024/01/25 12:39:28;;;;;;;0.30;0.30;;;;;;;24.18;23.48;93177.88;4836858;29;20057;-81
2024/01/25 12:41:53;;;;;;;0.30;0.30;;;;;;;24.25;23.23;93178.00;4849119;29;20042;-81
2024/01/25 12:44:19;;;;;;;0.45;0.45;;;;;;;24.41;23.86;93172.56;4834358;29;20038;-82